Quenemo, Kansas
Current Conditions -  °F | °C
As of 9:53 PM on Tuesday 21 Oct 2014 (Local Time) from KFOE Reporting Station
Clear Clear  
Wind Chill: 58°   Ceiling: Unl
Heat Index: 58°   Visibility: 10mi
Dew Point: 45°   Wind: 9mph
Humidity: 62%   Direction: 110°ESE
Pressure: 30.08"   Gusts: NA
Location:  38.58°N, 95.53°W
Report Text: KFOE 220253Z AUTO 11008KT 10SM CLR 14/07 A3008 RMK AO2 SLP183 T01440072 51012
Loading
Personal Weather Stations






























Interactive Weather Map
Tropical Storm Tracking
New forecast layout! Learn more

10-Day Weather Forecast

Advertisements
Track Severe Weather on mobile